Time;durP1;ratioP1;P1;durP2;ratioP2;P2;SDS_P1;SDS_P2;PMS_P1;PMS_P2;Temp;Humidity;BMP_temperature;BMP_pressure;BME280_temperature;BME280_humidity;BME280_pressure;Samples;Min_cycle;Max_cycle;Signal;HPM_P1;HPM_P2
2022/01/22 00:00:11;;;;;;;26.13;4.50;;;;;;;;;;5076224;28;20032;-90
2022/01/22 00:02:37;;;;;;;17.53;4.00;;;;;;;;;;5093476;28;20483;-94
2022/01/22 00:05:04;;;;;;;16.90;3.90;;;;;;;;;;5092634;28;20177;-92
2022/01/22 00:07:30;;;;;;;15.60;3.90;;;;;;;;;;5076007;28;20043;-89
2022/01/22 00:10:05;;;;;;;19.52;3.20;;;;;;;;;;5076398;28;20521;-90
2022/01/22 00:15:04;;;;;;;23.60;3.72;;;;;;;;;;5109157;28;20090;-89
2022/01/22 00:17:30;;;;;;;20.15;3.38;;;;;;;;;;5048217;28;20036;-90
2022/01/22 00:19:56;;;;;;;17.75;3.85;;;;;;;;;;5039654;28;20044;-91
2022/01/22 00:22:26;;;;;;;13.48;3.50;;;;;;;;;;5039444;28;20127;-94
2022/01/22 00:24:58;;;;;;;19.05;4.10;;;;;;;;;;5039955;28;20045;-90
2022/01/22 00:27:25;;;;;;;14.57;3.15;;;;;;;;;;5038844;28;20048;-89
2022/01/22 00:29:51;;;;;;;19.23;3.70;;;;;;;;;;5039496;28;20487;-90
2022/01/22 00:32:17;;;;;;;20.88;3.20;;;;;;;;;;5055847;28;20097;-90
2022/01/22 00:34:44;;;;;;;27.85;3.83;;;;;;;;;;5039024;28;20538;-89
2022/01/22 00:37:10;;;;;;;16.13;3.45;;;;;;;;;;5038884;28;20419;-89
2022/01/22 00:39:36;;;;;;;19.08;3.50;;;;;;;;;;5039586;28;20083;-89
2022/01/22 00:42:08;;;;;;;14.43;3.70;;;;;;;;;;5055458;28;20036;-90
2022/01/22 00:44:34;;;;;;;21.77;3.90;;;;;;;;;;5072254;28;20071;-90
2022/01/22 00:47:02;;;;;;;17.83;3.63;;;;;;;;;;5055304;28;20072;-90
2022/01/22 00:49:29;;;;;;;15.20;3.50;;;;;;;;;;5071944;28;20484;-93
2022/01/22 00:51:55;;;;;;;23.33;4.82;;;;;;;;;;5055058;28;20044;-91
2022/01/22 00:54:21;;;;;;;15.93;3.45;;;;;;;;;;5054954;28;20086;-91
2022/01/22 00:56:47;;;;;;;17.77;3.90;;;;;;;;;;5072258;28;20044;-89
2022/01/22 00:59:13;;;;;;;17.88;4.35;;;;;;;;;;5071410;28;20078;-92
2022/01/22 01:01:39;;;;;;;18.10;3.55;;;;;;;;;;5071896;28;20078;-88
2022/01/22 01:04:08;;;;;;;14.60;3.25;;;;;;;;;;5038498;28;20675;-93
2022/01/22 01:06:34;;;;;;;16.42;3.42;;;;;;;;;;5071854;28;20049;-90
2022/01/22 01:09:03;;;;;;;15.63;3.75;;;;;;;;;;5038428;28;20379;-89
2022/01/22 01:11:32;;;;;;;12.75;2.67;;;;;;;;;;5072080;28;20102;-89
2022/01/22 01:14:01;;;;;;;15.85;3.38;;;;;;;;;;5058828;28;20453;-93
2022/01/22 01:17:35;;;;;;;14.70;3.47;;;;;;;;;;5058408;28;20044;-90
2022/01/22 01:33:10;;;;;;;16.48;4.15;;;;;;;;;;5108530;28;20134;-88
2022/01/22 01:35:38;;;;;;;14.57;3.72;;;;;;;;;;5091699;28;20594;-92
2022/01/22 01:38:06;;;;;;;14.75;3.55;;;;;;;;;;5108092;28;20376;-91
2022/01/22 01:40:35;;;;;;;15.82;4.13;;;;;;;;;;5057436;28;20032;-91
2022/01/22 01:43:09;;;;;;;18.40;4.10;;;;;;;;;;5057652;28;20425;-94
2022/01/22 01:45:35;;;;;;;;;;;;;;;;;;5058560;28;20036;-90
2022/01/22 01:48:06;;;;;;;14.25;3.40;;;;;;;;;;5108393;28;19916;-89
2022/01/22 01:50:35;;;;;;;18.75;2.90;;;;;;;;;;5057376;28;20032;-89
2022/01/22 01:53:18;;;;;;;13.88;3.25;;;;;;;;;;5107757;28;20548;-88
2022/01/22 01:58:13;;;;;;;12.25;3.10;;;;;;;;;;5107642;28;20040;-90
2022/01/22 02:00:39;;;;;;;17.08;2.90;;;;;;;;;;5107889;28;21078;-89
2022/01/22 02:03:06;;;;;;;9.88;2.50;;;;;;;;;;5091424;28;20040;-87
2022/01/22 02:05:34;;;;;;;8.75;2.53;;;;;;;;;;5108199;28;20040;-89
2022/01/22 02:08:00;;;;;;;11.35;2.30;;;;;;;;;;5091206;28;20396;-89
2022/01/22 02:10:30;;;;;;;15.15;3.22;;;;;;;;;;5091128;28;20399;-89
2022/01/22 02:23:57;;;;;;;13.43;2.67;;;;;;;;;;5112079;28;20043;-91
2022/01/22 02:26:24;;;;;;;11.13;2.67;;;;;;;;;;5061425;28;20044;-91
2022/01/22 02:28:52;;;;;;;12.95;2.92;;;;;;;;;;5061151;28;20676;-90
2022/01/22 02:33:56;;;;;;;14.43;3.47;;;;;;;;;;5077892;28;20106;-90
2022/01/22 02:36:29;;;;;;;12.20;2.67;;;;;;;;;;5111291;28;20075;-89
2022/01/22 02:39:04;;;;;;;14.27;3.50;;;;;;;;;;5061888;28;20480;-90
2022/01/22 02:41:30;;;;;;;12.85;3.67;;;;;;;;;;5061490;28;20429;-91
2022/01/22 02:43:57;;;;;;;16.77;3.70;;;;;;;;;;5111396;28;20076;-89
2022/01/22 02:46:25;;;;;;;18.70;3.80;;;;;;;;;;5104099;28;20048;-89
2022/01/22 02:48:54;;;;;;;14.40;3.95;;;;;;;;;;5040714;28;20082;-92
2022/01/22 02:51:21;;;;;;;20.08;3.65;;;;;;;;;;5057130;28;20047;-92
2022/01/22 02:53:49;;;;;;;12.90;3.28;;;;;;;;;;5040754;28;20070;-90
2022/01/22 02:56:16;;;;;;;16.88;3.05;;;;;;;;;;5057337;28;20048;-90
2022/01/22 02:58:42;;;;;;;14.13;2.83;;;;;;;;;;5057050;28;20062;-90
2022/01/22 03:01:08;;;;;;;11.98;2.90;;;;;;;;;;5073558;28;20522;-91
2022/01/22 03:03:37;;;;;;;13.02;2.70;;;;;;;;;;5074186;28;20127;-91
2022/01/22 03:06:03;;;;;;;12.15;2.50;;;;;;;;;;5040117;28;20076;-90
2022/01/22 03:08:32;;;;;;;14.48;2.80;;;;;;;;;;5051096;28;20036;-90
2022/01/22 03:11:00;;;;;;;11.48;2.58;;;;;;;;;;5076701;28;20517;-88
2022/01/22 03:16:31;;;;;;;10.50;2.47;;;;;;;;;;5077625;28;20048;-91
2022/01/22 03:19:01;;;;;;;9.88;2.60;;;;;;;;;;5077228;28;20610;-91
2022/01/22 03:21:41;;;;;;;12.18;2.75;;;;;;;;;;5059718;28;20040;-90
2022/01/22 03:29:40;;;;;;;15.70;3.00;;;;;;;;;;5090244;28;20586;-91
2022/01/22 03:32:07;;;;;;;10.85;2.25;;;;;;;;;;5039354;28;20572;-92
2022/01/22 03:34:43;;;;;;;10.25;2.17;;;;;;;;;;5040237;28;20120;-93
2022/01/22 03:37:09;;;;;;;8.68;2.38;;;;;;;;;;5039984;28;20040;-91
2022/01/22 03:39:36;;;;;;;9.05;2.40;;;;;;;;;;5040176;28;20037;-90
2022/01/22 03:42:02;;;;;;;9.38;1.92;;;;;;;;;;5051347;28;20043;-91
2022/01/22 03:44:30;;;;;;;10.82;2.45;;;;;;;;;;5059763;28;20079;-91
2022/01/22 03:46:56;;;;;;;8.55;2.20;;;;;;;;;;5110697;28;20134;-89
2022/01/22 03:49:22;;;;;;;9.23;2.03;;;;;;;;;;5110911;28;20047;-89
2022/01/22 03:51:49;;;;;;;9.20;2.35;;;;;;;;;;5110385;28;20042;-92
2022/01/22 03:54:15;;;;;;;8.73;2.13;;;;;;;;;;5059571;28;20040;-90
2022/01/22 03:56:45;;;;;;;10.90;2.47;;;;;;;;;;5110615;28;20079;-90
2022/01/22 03:59:11;;;;;;;10.55;2.90;;;;;;;;;;5110108;28;20115;-90
2022/01/22 04:02:04;;;;;;;13.57;3.45;;;;;;;;;;5059178;28;20039;-88
2022/01/22 04:04:40;;;;;;;9.57;2.50;;;;;;;;;;5075675;28;20079;-88
2022/01/22 04:09:43;;;;;;;12.35;2.80;;;;;;;;;;5076017;28;20130;-88
2022/01/22 04:12:11;;;;;;;10.73;2.83;;;;;;;;;;5109671;28;20075;-91
2022/01/22 04:14:45;;;;;;;11.35;2.78;;;;;;;;;;5060013;28;20079;-91
2022/01/22 04:25:11;;;;;;;11.10;2.60;;;;;;;;;;5109699;28;20048;-90
2022/01/22 04:27:38;;;;;;;12.27;2.50;;;;;;;;;;5109582;28;20050;-90
2022/01/22 04:30:04;;;;;;;10.45;2.78;;;;;;;;;;5109381;28;20044;-90
2022/01/22 04:32:32;;;;;;;10.82;2.85;;;;;;;;;;5058978;28;20036;-88
2022/01/22 04:34:59;;;;;;;8.85;2.08;;;;;;;;;;5109134;28;20036;-90
2022/01/22 04:37:25;;;;;;;9.38;2.40;;;;;;;;;;5109282;28;20055;-89
2022/01/22 04:39:52;;;;;;;11.40;2.17;;;;;;;;;;5058550;28;20043;-89
2022/01/22 04:42:19;;;;;;;8.73;2.40;;;;;;;;;;5058793;28;20040;-90
2022/01/22 04:44:59;;;;;;;9.52;1.77;;;;;;;;;;5109298;28;20043;-91
2022/01/22 04:47:36;;;;;;;10.95;2.08;;;;;;;;;;5058687;28;20044;-90
2022/01/22 04:55:39;;;;;;;11.98;2.17;;;;;;;;;;5068048;28;20140;-89
2022/01/22 04:58:05;;;;;;;11.52;1.83;;;;;;;;;;5085684;28;20480;-91
2022/01/22 05:00:33;;;;;;;7.55;1.60;;;;;;;;;;5054670;28;20510;-91
2022/01/22 05:02:59;;;;;;;9.63;1.73;;;;;;;;;;5071726;28;20032;-92
2022/01/22 05:05:26;;;;;;;8.40;1.83;;;;;;;;;;5055170;28;20613;-91
2022/01/22 05:07:52;;;;;;;8.30;1.65;;;;;;;;;;5060500;28;20128;-91
2022/01/22 05:10:31;;;;;;;7.60;1.77;;;;;;;;;;5074678;28;20517;-88
2022/01/22 05:12:57;;;;;;;10.68;2.10;;;;;;;;;;5074053;28;20040;-92
2022/01/22 05:15:23;;;;;;;7.43;1.52;;;;;;;;;;5073858;28;20109;-91
2022/01/22 05:17:49;;;;;;;12.23;2.00;;;;;;;;;;5075152;28;20036;-88
2022/01/22 05:25:26;;;;;;;9.07;1.45;;;;;;;;;;5034702;28;20048;-91
2022/01/22 05:30:54;;;;;;;12.10;1.85;;;;;;;;;;5035010;28;20488;-89
2022/01/22 05:39:01;;;;;;;12.63;2.20;;;;;;;;;;5034214;28;20037;-89
2022/01/22 05:41:27;;;;;;;12.20;2.38;;;;;;;;;;5034448;28;20037;-90
2022/01/22 05:43:53;;;;;;;11.38;2.03;;;;;;;;;;5033621;28;20041;-93
2022/01/22 05:46:19;;;;;;;11.95;2.30;;;;;;;;;;5051051;28;20182;-91
2022/01/22 05:48:46;;;;;;;11.20;2.00;;;;;;;;;;5067259;28;20128;-89
2022/01/22 05:51:13;;;;;;;15.25;2.80;;;;;;;;;;5050864;28;20052;-90
2022/01/22 06:01:22;;;;;;;10.63;2.22;;;;;;;;;;5072033;28;20044;-90
2022/01/22 06:03:48;;;;;;;11.65;2.10;;;;;;;;;;5055499;28;20048;-90
2022/01/22 06:06:14;;;;;;;17.30;2.08;;;;;;;;;;5072338;28;20037;-92
2022/01/22 06:08:47;;;;;;;10.07;1.98;;;;;;;;;;5072063;28;20484;-90
2022/01/22 06:11:21;;;;;;;11.35;2.25;;;;;;;;;;5054964;28;20127;-90
2022/01/22 06:13:47;;;;;;;21.75;2.90;;;;;;;;;;5041155;28;20049;-91
2022/01/22 06:16:15;;;;;;;12.80;2.58;;;;;;;;;;5058968;28;20500;-89
2022/01/22 06:18:42;;;;;;;13.80;2.63;;;;;;;;;;5042193;28;20407;-89
2022/01/22 06:21:09;;;;;;;15.13;2.67;;;;;;;;;;5040812;28;20041;-91
2022/01/22 06:23:35;;;;;;;15.82;2.58;;;;;;;;;;5042166;28;20129;-89
2022/01/22 06:26:02;;;;;;;13.75;2.15;;;;;;;;;;5059627;28;20082;-90
2022/01/22 06:28:29;;;;;;;13.70;2.60;;;;;;;;;;5095159;28;20036;-87
2022/01/22 06:31:01;;;;;;;10.23;2.38;;;;;;;;;;5095027;28;20131;-92
2022/01/22 06:33:27;;;;;;;10.73;2.47;;;;;;;;;;5111352;28;20112;-88
2022/01/22 06:35:54;;;;;;;11.85;2.65;;;;;;;;;;5094947;28;20397;-92
2022/01/22 06:38:20;;;;;;;11.55;2.88;;;;;;;;;;5111667;28;20150;-90
2022/01/22 06:43:32;;;;;;;13.07;2.45;;;;;;;;;;5094988;28;20444;-88
2022/01/22 06:45:59;;;;;;;15.32;2.95;;;;;;;;;;5094334;28;20043;-90
2022/01/22 06:48:25;;;;;;;15.52;3.53;;;;;;;;;;5094600;28;20552;-90
2022/01/22 06:50:52;;;;;;;11.73;3.70;;;;;;;;;;5111185;28;20051;-89
2022/01/22 06:53:19;;;;;;;10.02;2.50;;;;;;;;;;5111528;27;20040;-89
2022/01/22 06:55:56;;;;;;;12.32;2.22;;;;;;;;;;5111291;28;20502;-89
2022/01/22 06:58:22;;;;;;;10.13;2.35;;;;;;;;;;5077187;28;20032;-90
2022/01/22 07:00:48;;;;;;;10.18;2.53;;;;;;;;;;5128581;27;20036;-90
2022/01/22 07:03:14;;;;;;;15.57;2.80;;;;;;;;;;5128230;27;20032;-90
2022/01/22 07:05:40;;;;;;;13.43;2.58;;;;;;;;;;5111350;28;20032;-92
2022/01/22 07:08:07;;;;;;;11.45;2.65;;;;;;;;;;5127842;27;20391;-90
2022/01/22 07:10:33;;;;;;;10.55;2.08;;;;;;;;;;5131042;27;20526;-91
2022/01/22 07:12:59;;;;;;;9.95;1.95;;;;;;;;;;5111512;28;20032;-89
2022/01/22 07:15:26;;;;;;;10.77;2.58;;;;;;;;;;5093784;28;20052;-90
2022/01/22 07:17:54;;;;;;;11.65;3.08;;;;;;;;;;5109949;28;20115;-90
2022/01/22 07:20:27;;;;;;;6.78;1.75;;;;;;;;;;5092199;28;20036;-91
2022/01/22 07:25:39;;;;;;;8.02;1.80;;;;;;;;;;5071414;28;20518;-90
2022/01/22 07:28:06;;;;;;;9.52;2.05;;;;;;;;;;5087790;28;20040;-89
2022/01/22 07:30:32;;;;;;;10.88;2.40;;;;;;;;;;5085733;28;20048;-89
2022/01/22 07:32:58;;;;;;;11.77;2.67;;;;;;;;;;5091245;28;20036;-89
2022/01/22 07:35:24;;;;;;;11.88;2.70;;;;;;;;;;5109260;28;20036;-90
2022/01/22 07:37:50;;;;;;;13.48;3.13;;;;;;;;;;5109416;28;20032;-88
2022/01/22 07:40:17;;;;;;;10.32;2.92;;;;;;;;;;5109042;28;20047;-89
2022/01/22 07:42:43;;;;;;;12.40;2.67;;;;;;;;;;5092819;28;20522;-88
2022/01/22 07:45:10;;;;;;;10.73;2.40;;;;;;;;;;5110691;27;20036;-90
2022/01/22 07:47:37;;;;;;;12.60;2.65;;;;;;;;;;5105243;28;20079;-89
2022/01/22 07:50:03;;;;;;;11.27;3.03;;;;;;;;;;5093445;28;20032;-90
2022/01/22 07:52:30;;;;;;;10.82;2.85;;;;;;;;;;5094660;28;20404;-90
2022/01/22 07:54:56;;;;;;;11.40;2.65;;;;;;;;;;5092089;28;20036;-88
2022/01/22 07:57:23;;;;;;;14.02;2.70;;;;;;;;;;5110997;28;20388;-88
2022/01/22 07:59:53;;;;;;;11.90;2.30;;;;;;;;;;5095123;28;20043;-88
2022/01/22 08:02:19;;;;;;;11.07;2.03;;;;;;;;;;5096253;28;20032;-91
2022/01/22 08:04:45;;;;;;;7.68;2.13;;;;;;;;;;5122407;27;20039;-88
2022/01/22 08:07:12;;;;;;;9.45;3.15;;;;;;;;;;5101641;28;20048;-89
2022/01/22 08:09:45;;;;;;;8.52;2.10;;;;;;;;;;5100808;28;20518;-87
2022/01/22 08:12:11;;;;;;;9.18;2.35;;;;;;;;;;5080950;28;20124;-88
2022/01/22 08:14:38;;;;;;;7.38;2.42;;;;;;;;;;5085502;28;20054;-90
2022/01/22 08:17:12;;;;;;;9.30;2.30;;;;;;;;;;5105037;28;20040;-88
2022/01/22 08:19:38;;;;;;;7.53;2.17;;;;;;;;;;5096163;28;20378;-88
2022/01/22 08:22:05;;;;;;;6.55;2.30;;;;;;;;;;5109455;27;20037;-88
2022/01/22 08:24:31;;;;;;;8.82;2.38;;;;;;;;;;5122969;27;20120;-87
2022/01/22 08:27:32;;;;;;;5.05;1.92;;;;;;;;;;5080911;28;20054;-91
2022/01/22 08:30:04;;;;;;;11.95;2.25;;;;;;;;;;5121235;27;20110;-88
2022/01/22 08:35:54;;;;;;;8.73;2.10;;;;;;;;;;5097885;28;20546;-91
2022/01/22 08:38:25;;;;;;;6.55;1.65;;;;;;;;;;5093095;28;20493;-92
2022/01/22 08:40:51;;;;;;;8.13;2.03;;;;;;;;;;5094149;28;20036;-91
2022/01/22 08:43:22;;;;;;;8.82;2.15;;;;;;;;;;5101111;28;20046;-89
2022/01/22 08:45:51;;;;;;;7.43;1.73;;;;;;;;;;5092729;27;20395;-91
2022/01/22 08:48:29;;;;;;;5.38;1.60;;;;;;;;;;5085483;28;20093;-90
2022/01/22 08:50:56;;;;;;;8.00;2.08;;;;;;;;;;5097899;28;20313;-89
2022/01/22 08:53:22;;;;;;;6.57;1.73;;;;;;;;;;5107613;28;20036;-91
2022/01/22 08:56:02;;;;;;;8.18;1.85;;;;;;;;;;5107132;28;20130;-88
2022/01/22 08:58:28;;;;;;;7.68;1.85;;;;;;;;;;5106327;28;20077;-91
2022/01/22 09:00:55;;;;;;;5.63;1.30;;;;;;;;;;5105677;28;20054;-90
2022/01/22 09:03:22;;;;;;;5.70;1.60;;;;;;;;;;5094638;28;20040;-89
2022/01/22 09:05:50;;;;;;;8.93;1.88;;;;;;;;;;5105668;27;20411;-90
2022/01/22 09:08:53;;;;;;;5.70;1.70;;;;;;;;;;5089976;28;20558;-91
2022/01/22 09:11:49;;;;;;;10.55;1.90;;;;;;;;;;5071364;28;20537;-92
2022/01/22 09:14:33;;;;;;;7.20;1.67;;;;;;;;;;5026562;28;20176;-91
2022/01/22 09:17:21;;;;;;;7.50;1.83;;;;;;;;;;5011554;28;20432;-89
2022/01/22 09:23:44;;;;;;;10.50;2.20;;;;;;;;;;4981323;28;20084;-89
2022/01/22 09:27:15;;;;;;;9.63;2.15;;;;;;;;;;4987679;28;20604;-91
2022/01/22 09:33:18;;;;;;;9.40;2.00;;;;;;;;;;5003604;28;20041;-89
2022/01/22 09:35:45;;;;;;;9.52;1.90;;;;;;;;;;5010581;28;20568;-89
2022/01/22 09:38:17;;;;;;;11.77;2.15;;;;;;;;;;5075949;28;20265;-89
2022/01/22 09:40:43;;;;;;;10.80;2.20;;;;;;;;;;5081091;28;20497;-89
2022/01/22 09:43:11;;;;;;;11.23;2.70;;;;;;;;;;5067708;28;20126;-89
2022/01/22 09:45:37;;;;;;;10.00;2.45;;;;;;;;;;5071453;28;20186;-89
2022/01/22 09:48:04;;;;;;;9.25;2.20;;;;;;;;;;5065300;28;20038;-89
2022/01/22 09:50:31;;;;;;;9.15;2.22;;;;;;;;;;5069282;28;20035;-88
2022/01/22 09:52:58;;;;;;;12.82;2.13;;;;;;;;;;5064074;28;20441;-88
2022/01/22 09:55:33;;;;;;;9.77;2.40;;;;;;;;;;5063390;28;20070;-89
2022/01/22 09:58:04;;;;;;;11.20;3.08;;;;;;;;;;5059237;28;20074;-89
2022/01/22 10:00:31;;;;;;;10.25;2.72;;;;;;;;;;5052877;28;20036;-89
2022/01/22 10:03:00;;;;;;;10.45;2.95;;;;;;;;;;5053706;28;20040;-89
2022/01/22 10:05:31;;;;;;;9.70;2.55;;;;;;;;;;5070090;28;20036;-90
2022/01/22 10:08:16;;;;;;;9.25;2.40;;;;;;;;;;5053771;28;20040;-86
2022/01/22 10:10:42;;;;;;;11.35;2.75;;;;;;;;;;5041266;28;20032;-87
2022/01/22 10:13:08;;;;;;;14.75;3.30;;;;;;;;;;5071037;28;20114;-88
2022/01/22 10:15:36;;;;;;;10.80;2.80;;;;;;;;;;5067306;28;20052;-89
2022/01/22 10:18:02;;;;;;;16.33;3.50;;;;;;;;;;5063589;28;20376;-90
2022/01/22 10:20:36;;;;;;;10.25;2.70;;;;;;;;;;5095818;28;20028;-88
2022/01/22 10:23:19;;;;;;;8.88;2.70;;;;;;;;;;5085721;28;20032;-88
2022/01/22 10:25:57;;;;;;;16.00;3.45;;;;;;;;;;5071994;28;20048;-89
2022/01/22 10:28:26;;;;;;;11.13;3.28;;;;;;;;;;5088887;28;20255;-89
2022/01/22 10:30:56;;;;;;;8.00;2.63;;;;;;;;;;5064159;28;20050;-89
2022/01/22 10:33:28;;;;;;;9.85;2.75;;;;;;;;;;5103556;28;20043;-89
2022/01/22 10:36:08;;;;;;;10.15;3.25;;;;;;;;;;5046986;28;20569;-89
2022/01/22 10:38:54;;;;;;;12.15;2.80;;;;;;;;;;5087127;28;20114;-90
2022/01/22 10:41:36;;;;;;;13.10;3.47;;;;;;;;;;5070803;28;20414;-89
2022/01/22 10:44:03;;;;;;;12.32;3.55;;;;;;;;;;5060485;28;20078;-88
2022/01/22 10:46:44;;;;;;;10.35;3.13;;;;;;;;;;5094992;28;20044;-88
2022/01/22 10:49:24;;;;;;;12.15;3.90;;;;;;;;;;5070288;28;20040;-88
2022/01/22 10:51:52;;;;;;;13.10;4.30;;;;;;;;;;5056841;28;20044;-89
2022/01/22 10:54:47;;;;;;;11.63;4.55;;;;;;;;;;5089158;28;20051;-88
2022/01/22 10:57:43;;;;;;;15.55;3.80;;;;;;;;;;5056447;28;20044;-88
2022/01/22 11:00:37;;;;;;;14.20;4.15;;;;;;;;;;5062898;28;20058;-89
2022/01/22 11:03:28;;;;;;;13.27;3.70;;;;;;;;;;5090025;28;20032;-88
2022/01/22 11:05:54;;;;;;;12.90;4.25;;;;;;;;;;5106990;28;20449;-88
2022/01/22 11:08:20;;;;;;;13.75;4.35;;;;;;;;;;5107673;28;20113;-88
2022/01/22 11:10:50;;;;;;;13.45;4.55;;;;;;;;;;5056172;28;20046;-89
2022/01/22 11:13:17;;;;;;;11.27;4.20;;;;;;;;;;5055447;28;20473;-88
2022/01/22 11:15:45;;;;;;;13.18;3.90;;;;;;;;;;5088945;28;20110;-89
2022/01/22 11:18:12;;;;;;;11.35;3.60;;;;;;;;;;5089306;28;20044;-88
2022/01/22 11:20:42;;;;;;;13.63;3.95;;;;;;;;;;5056481;28;20553;-87
2022/01/22 11:23:08;;;;;;;15.55;4.28;;;;;;;;;;5072733;28;20042;-88
2022/01/22 11:25:35;;;;;;;11.60;3.78;;;;;;;;;;5072435;28;20062;-88
2022/01/22 11:28:03;;;;;;;13.45;4.30;;;;;;;;;;5073005;28;20032;-88
2022/01/22 11:30:30;;;;;;;10.73;3.72;;;;;;;;;;5072952;28;20123;-89
2022/01/22 11:33:03;;;;;;;11.05;4.25;;;;;;;;;;5055992;28;20687;-88
2022/01/22 11:36:05;;;;;;;12.32;3.92;;;;;;;;;;5056856;28;20052;-88
2022/01/22 11:38:39;;;;;;;12.98;3.97;;;;;;;;;;5072485;28;20036;-88
2022/01/22 11:41:06;;;;;;;18.55;4.53;;;;;;;;;;5055715;28;20376;-88
2022/01/22 11:46:46;;;;;;;14.07;4.10;;;;;;;;;;5106538;28;20139;-87
2022/01/22 11:49:21;;;;;;;15.27;4.85;;;;;;;;;;5089474;28;20032;-88
2022/01/22 11:51:49;;;;;;;14.43;4.57;;;;;;;;;;5056077;28;20067;-88
2022/01/22 11:54:16;;;;;;;15.93;5.28;;;;;;;;;;5088148;28;20036;-88
2022/01/22 11:56:44;;;;;;;17.30;5.20;;;;;;;;;;5056733;28;20554;-88
2022/01/22 11:59:13;;;;;;;19.15;6.35;;;;;;;;;;5055221;28;20089;-87
2022/01/22 12:01:56;;;;;;;20.63;6.05;;;;;;;;;;5088973;28;20483;-87
2022/01/22 12:04:23;;;;;;;19.95;6.18;;;;;;;;;;5088848;28;20055;-88
2022/01/22 12:07:26;;;;;;;14.02;5.53;;;;;;;;;;5055433;28;20047;-88
2022/01/22 12:16:10;;;;;;;15.55;4.82;;;;;;;;;;5105318;28;20044;-88
2022/01/22 12:19:27;;;;;;;15.38;5.63;;;;;;;;;;5088603;28;20040;-89
2022/01/22 12:21:54;;;;;;;19.45;5.05;;;;;;;;;;5071918;28;20040;-88
2022/01/22 12:24:31;;;;;;;12.93;4.70;;;;;;;;;;5055537;28;20040;-88
2022/01/22 12:27:04;;;;;;;16.10;5.53;;;;;;;;;;5061229;28;20040;-88
2022/01/22 12:29:38;;;;;;;21.42;5.60;;;;;;;;;;5076490;28;20044;-89
2022/01/22 12:32:47;;;;;;;13.57;5.75;;;;;;;;;;5088492;28;20055;-88
2022/01/22 12:35:19;;;;;;;14.35;5.72;;;;;;;;;;5054923;28;20036;-88
2022/01/22 12:37:50;;;;;;;18.10;6.07;;;;;;;;;;5054909;28;20352;-88
2022/01/22 12:40:19;;;;;;;;;;;;;;;;;;5105629;28;20043;-89
2022/01/22 12:42:53;;;;;;;19.63;6.55;;;;;;;;;;5071259;28;19959;-88
2022/01/22 12:45:22;;;;;;;14.68;6.30;;;;;;;;;;5088557;28;20040;-87
2022/01/22 12:47:54;;;;;;;14.82;6.15;;;;;;;;;;5039333;28;20036;-87
2022/01/22 12:50:39;;;;;;;24.33;7.40;;;;;;;;;;5089990;28;20047;-87
2022/01/22 12:53:11;;;;;;;15.85;6.50;;;;;;;;;;5053896;28;20047;-88
2022/01/22 12:58:21;;;;;;;16.63;6.47;;;;;;;;;;5082653;28;20411;-87
2022/01/22 13:00:47;;;;;;;14.30;6.03;;;;;;;;;;5061143;28;20078;-87
2022/01/22 13:03:14;;;;;;;17.88;6.38;;;;;;;;;;5054868;28;20071;-86
2022/01/22 13:05:45;;;;;;;16.17;5.97;;;;;;;;;;5088374;28;20035;-88
2022/01/22 13:08:12;;;;;;;15.27;6.07;;;;;;;;;;5054467;28;20393;-88
2022/01/22 13:10:43;;;;;;;19.80;6.47;;;;;;;;;;5089822;28;20040;-89
2022/01/22 13:13:14;;;;;;;16.70;5.55;;;;;;;;;;5105909;28;20388;-89
2022/01/22 13:15:40;;;;;;;17.35;5.50;;;;;;;;;;5104881;28;20059;-91
2022/01/22 13:18:07;;;;;;;14.90;5.45;;;;;;;;;;5071152;28;20040;-87
2022/01/22 13:20:36;;;;;;;15.65;6.25;;;;;;;;;;5054023;28;20039;-87
2022/01/22 13:23:18;;;;;;;18.20;5.78;;;;;;;;;;5104244;28;20561;-88
2022/01/22 13:25:44;;;;;;;16.88;6.00;;;;;;;;;;5104019;28;20032;-89
2022/01/22 13:28:12;;;;;;;16.23;5.80;;;;;;;;;;5053307;28;20174;-89
2022/01/22 13:30:45;;;;;;;14.23;5.97;;;;;;;;;;5104876;28;20522;-86
2022/01/22 13:36:13;;;;;;;17.48;5.43;;;;;;;;;;5070506;28;20424;-87
2022/01/22 13:39:24;;;;;;;11.82;5.22;;;;;;;;;;5070205;28;20124;-87
2022/01/22 13:45:07;;;;;;;18.42;5.35;;;;;;;;;;5068057;28;20032;-87
2022/01/22 13:47:48;;;;;;;15.32;5.80;;;;;;;;;;5089464;28;20044;-87
2022/01/22 13:50:16;;;;;;;13.85;5.75;;;;;;;;;;5089886;28;20032;-87
2022/01/22 13:52:46;;;;;;;15.10;5.80;;;;;;;;;;5056147;28;20063;-88
2022/01/22 13:55:33;;;;;;;8.45;3.92;;;;;;;;;;5069010;28;20044;-87
2022/01/22 13:58:00;;;;;;;13.20;4.30;;;;;;;;;;5065381;28;20047;-87
2022/01/22 14:00:27;;;;;;;11.70;3.45;;;;;;;;;;5070731;28;20044;-87
2022/01/22 14:03:27;;;;;;;10.38;2.88;;;;;;;;;;5052817;28;20048;-85
2022/01/22 14:05:54;;;;;;;12.70;2.63;;;;;;;;;;5085716;28;20070;-87
2022/01/22 14:08:34;;;;;;;7.50;2.55;;;;;;;;;;5088022;28;20043;-89
2022/01/22 14:11:24;;;;;;;7.57;2.42;;;;;;;;;;5087627;28;20032;-87
2022/01/22 14:14:03;;;;;;;9.18;2.78;;;;;;;;;;5069598;28;20036;-86
2022/01/22 14:16:32;;;;;;;8.40;2.65;;;;;;;;;;5040785;28;20466;-86
2022/01/22 14:18:59;;;;;;;8.80;2.15;;;;;;;;;;5058402;28;20036;-87
2022/01/22 14:21:26;;;;;;;9.88;2.60;;;;;;;;;;5059661;28;20042;-87
2022/01/22 14:23:52;;;;;;;13.98;3.00;;;;;;;;;;5109550;28;20047;-87
2022/01/22 14:26:28;;;;;;;8.65;2.67;;;;;;;;;;5059834;28;20134;-88
2022/01/22 14:29:01;;;;;;;10.93;3.03;;;;;;;;;;5059663;28;20078;-88
2022/01/22 14:31:27;;;;;;;10.90;2.78;;;;;;;;;;5110645;28;20241;-87
2022/01/22 14:33:58;;;;;;;12.25;3.72;;;;;;;;;;5059683;28;20252;-88
2022/01/22 14:36:26;;;;;;;12.20;3.63;;;;;;;;;;5057894;28;20069;-87
2022/01/22 14:39:03;;;;;;;11.25;3.30;;;;;;;;;;5056820;28;20081;-86
2022/01/22 14:46:46;;;;;;;10.00;3.63;;;;;;;;;;5115384;27;20202;-87
2022/01/22 14:49:13;;;;;;;8.77;3.05;;;;;;;;;;5110564;27;20510;-87
2022/01/22 14:51:40;;;;;;;13.38;3.60;;;;;;;;;;5082911;28;20039;-88
2022/01/22 14:54:08;;;;;;;9.38;3.08;;;;;;;;;;5075357;28;20036;-87
2022/01/22 14:56:35;;;;;;;12.30;3.28;;;;;;;;;;5077676;28;20040;-87
2022/01/22 14:59:02;;;;;;;10.55;3.20;;;;;;;;;;5064394;28;20380;-88
2022/01/22 15:01:30;;;;;;;7.97;3.08;;;;;;;;;;5060956;28;20036;-87
2022/01/22 15:04:23;;;;;;;8.73;2.63;;;;;;;;;;5060840;28;20185;-87
2022/01/22 15:06:56;;;;;;;14.73;3.25;;;;;;;;;;4994842;28;20119;-88
2022/01/22 15:09:57;;;;;;;10.32;2.88;;;;;;;;;;5032779;28;20127;-87
2022/01/22 15:12:24;;;;;;;7.93;3.00;;;;;;;;;;5006921;28;20496;-88
2022/01/22 15:14:59;;;;;;;13.10;3.53;;;;;;;;;;5019334;28;20049;-88
2022/01/22 15:17:31;;;;;;;17.23;3.33;;;;;;;;;;5004124;28;20059;-88
2022/01/22 15:19:58;;;;;;;9.13;2.88;;;;;;;;;;4998692;28;20037;-88
2022/01/22 15:22:40;;;;;;;13.50;3.85;;;;;;;;;;5011499;28;20049;-86
2022/01/22 15:25:22;;;;;;;9.95;3.00;;;;;;;;;;5032070;28;20386;-88
2022/01/22 15:27:55;;;;;;;12.25;3.08;;;;;;;;;;5021953;28;20056;-89
2022/01/22 15:30:30;;;;;;;8.73;2.67;;;;;;;;;;5016167;28;20141;-88
2022/01/22 15:33:02;;;;;;;11.95;3.10;;;;;;;;;;5021375;28;20204;-89
2022/01/22 15:35:49;;;;;;;6.75;2.15;;;;;;;;;;5015132;28;20081;-88
2022/01/22 15:38:35;;;;;;;8.70;2.63;;;;;;;;;;5062374;28;20553;-88
2022/01/22 15:41:07;;;;;;;8.95;2.25;;;;;;;;;;5079725;28;20036;-88
2022/01/22 15:43:37;;;;;;;6.95;1.85;;;;;;;;;;5089009;28;20071;-90
2022/01/22 15:46:04;;;;;;;9.35;2.17;;;;;;;;;;5059543;28;20024;-89
2022/01/22 15:48:41;;;;;;;6.60;2.33;;;;;;;;;;5075311;28;20076;-88
2022/01/22 15:51:07;;;;;;;7.03;1.80;;;;;;;;;;5070365;28;20089;-90
2022/01/22 15:53:35;;;;;;;12.32;2.30;;;;;;;;;;5069415;28;20036;-89
2022/01/22 15:56:01;;;;;;;6.38;1.98;;;;;;;;;;5068735;28;20081;-89
2022/01/22 15:58:27;;;;;;;7.00;1.90;;;;;;;;;;5058772;28;20036;-90
2022/01/22 16:00:53;;;;;;;6.07;1.80;;;;;;;;;;5063295;28;20126;-88
2022/01/22 16:03:20;;;;;;;8.70;2.00;;;;;;;;;;5077315;28;20051;-89
2022/01/22 16:05:46;;;;;;;8.85;2.13;;;;;;;;;;5058437;28;20040;-88
2022/01/22 16:08:13;;;;;;;7.03;2.38;;;;;;;;;;5078333;28;20031;-87
2022/01/22 16:10:39;;;;;;;7.22;2.58;;;;;;;;;;5070101;28;20501;-88
2022/01/22 16:13:06;;;;;;;9.85;2.45;;;;;;;;;;5059791;28;20032;-87
2022/01/22 16:15:32;;;;;;;7.60;2.05;;;;;;;;;;5074796;28;20044;-86
2022/01/22 16:17:59;;;;;;;6.25;2.22;;;;;;;;;;5088589;28;20047;-87
2022/01/22 16:20:26;;;;;;;7.75;2.53;;;;;;;;;;5110210;27;20170;-87
2022/01/22 16:22:53;;;;;;;7.65;2.58;;;;;;;;;;5066851;28;20098;-87
2022/01/22 16:25:19;;;;;;;9.60;2.40;;;;;;;;;;5057806;28;20067;-87
2022/01/22 16:27:45;;;;;;;8.27;2.85;;;;;;;;;;5075369;28;20107;-88
2022/01/22 16:30:11;;;;;;;10.02;3.08;;;;;;;;;;5088169;28;20097;-88
2022/01/22 16:32:37;;;;;;;7.97;3.33;;;;;;;;;;5100202;28;20044;-87
2022/01/22 16:35:04;;;;;;;14.23;4.07;;;;;;;;;;5079334;28;20036;-85
2022/01/22 16:37:30;;;;;;;7.60;2.70;;;;;;;;;;5075115;28;20036;-87
2022/01/22 16:39:57;;;;;;;8.57;3.35;;;;;;;;;;5074840;28;20075;-87
2022/01/22 16:42:26;;;;;;;9.43;3.53;;;;;;;;;;5058671;28;20451;-88
2022/01/22 16:58:02;;;;;;;10.40;3.15;;;;;;;;;;5074342;28;20087;-87
2022/01/22 17:00:37;;;;;;;9.02;3.97;;;;;;;;;;5058612;28;20036;-88
2022/01/22 17:03:07;;;;;;;12.50;3.75;;;;;;;;;;5092294;28;20123;-88
2022/01/22 17:05:37;;;;;;;14.48;3.80;;;;;;;;;;5108879;28;20039;-88